sensor_id;sensor_type;location;lat;lon;timestamp;noise_LAeq;noise_LA_min;noise_LA_max;noise_LA01;noise_LA95
75467;Laerm;64050;50.634;3.062;2022-10-20T00:00:58;48.36;45.24;52.03;;
75467;Laerm;64050;50.634;3.062;2022-10-20T00:03:24;48.12;44.74;53.19;;
75467;Laerm;64050;50.634;3.062;2022-10-20T00:05:49;48.14;45.31;53.51;;
75467;Laerm;64050;50.634;3.062;2022-10-20T00:08:15;48.58;45.31;56.58;;
75467;Laerm;64050;50.634;3.062;2022-10-20T00:10:40;48.23;44.98;52.46;;
75467;Laerm;64050;50.634;3.062;2022-10-20T00:13:05;48.05;45.31;54.26;;
75467;Laerm;64050;50.634;3.062;2022-10-20T00:15:30;48.47;44.56;61.59;;
75467;Laerm;64050;50.634;3.062;2022-10-20T00:17:56;48.40;44.73;55.57;;
75467;Laerm;64050;50.634;3.062;2022-10-20T00:20:21;48.08;45.27;53.31;;
75467;Laerm;64050;50.634;3.062;2022-10-20T00:22:46;48.38;45.30;52.84;;
75467;Laerm;64050;50.634;3.062;2022-10-20T00:25:12;48.32;45.05;53.71;;
75467;Laerm;64050;50.634;3.062;2022-10-20T00:27:37;48.05;45.03;51.67;;
75467;Laerm;64050;50.634;3.062;2022-10-20T00:30:02;48.22;44.83;54.33;;
75467;Laerm;64050;50.634;3.062;2022-10-20T00:32:28;48.01;44.71;52.66;;
75467;Laerm;64050;50.634;3.062;2022-10-20T00:34:56;48.08;45.10;52.79;;
75467;Laerm;64050;50.634;3.062;2022-10-20T00:37:21;48.26;45.26;53.22;;
75467;Laerm;64050;50.634;3.062;2022-10-20T00:39:46;48.01;44.53;51.91;;
75467;Laerm;64050;50.634;3.062;2022-10-20T00:42:15;48.15;44.52;53.56;;
75467;Laerm;64050;50.634;3.062;2022-10-20T00:47:17;48.46;44.78;57.56;;
75467;Laerm;64050;50.634;3.062;2022-10-20T00:49:43;47.97;45.33;51.74;;
75467;Laerm;64050;50.634;3.062;2022-10-20T00:52:08;48.08;44.24;54.32;;
75467;Laerm;64050;50.634;3.062;2022-10-20T00:54:35;48.08;44.75;52.91;;
75467;Laerm;64050;50.634;3.062;2022-10-20T00:57:00;47.94;44.70;54.03;;
75467;Laerm;64050;50.634;3.062;2022-10-20T00:59:27;48.12;44.79;51.36;;
75467;Laerm;64050;50.634;3.062;2022-10-20T01:01:53;48.06;45.17;53.68;;
75467;Laerm;64050;50.634;3.062;2022-10-20T01:04:18;48.26;45.42;51.20;;
75467;Laerm;64050;50.634;3.062;2022-10-20T01:06:43;47.85;44.52;52.94;;
75467;Laerm;64050;50.634;3.062;2022-10-20T01:09:09;48.15;44.91;53.06;;
75467;Laerm;64050;50.634;3.062;2022-10-20T01:11:43;48.21;45.17;51.16;;
75467;Laerm;64050;50.634;3.062;2022-10-20T01:19:28;48.23;44.74;53.18;;
75467;Laerm;64050;50.634;3.062;2022-10-20T01:27:22;48.21;44.89;52.12;;
75467;Laerm;64050;50.634;3.062;2022-10-20T01:35:00;47.93;44.63;51.68;;
75467;Laerm;64050;50.634;3.062;2022-10-20T01:39:57;47.93;44.91;53.86;;
75467;Laerm;64050;50.634;3.062;2022-10-20T01:42:25;47.72;44.26;52.82;;
75467;Laerm;64050;50.634;3.062;2022-10-20T01:44:53;47.69;43.92;51.89;;
75467;Laerm;64050;50.634;3.062;2022-10-20T01:47:19;48.16;44.60;52.09;;
75467;Laerm;64050;50.634;3.062;2022-10-20T01:49:46;48.96;44.80;62.40;;
75467;Laerm;64050;50.634;3.062;2022-10-20T01:52:12;47.93;45.03;53.64;;
75467;Laerm;64050;50.634;3.062;2022-10-20T01:54:38;47.78;44.48;51.85;;
75467;Laerm;64050;50.634;3.062;2022-10-20T02:07:14;48.14;45.21;53.38;;
75467;Laerm;64050;50.634;3.062;2022-10-20T02:09:45;47.87;44.63;50.75;;
75467;Laerm;64050;50.634;3.062;2022-10-20T02:12:31;47.67;44.52;53.45;;
75467;Laerm;64050;50.634;3.062;2022-10-20T02:14:58;47.87;44.58;53.31;;
75467;Laerm;64050;50.634;3.062;2022-10-20T02:17:24;47.87;44.91;52.10;;
75467;Laerm;64050;50.634;3.062;2022-10-20T02:19:51;47.89;44.21;53.91;;
75467;Laerm;64050;50.634;3.062;2022-10-20T02:22:17;47.85;44.36;54.02;;
75467;Laerm;64050;50.634;3.062;2022-10-20T02:24:44;47.79;44.53;53.26;;
75467;Laerm;64050;50.634;3.062;2022-10-20T02:27:11;47.83;44.89;52.67;;
75467;Laerm;64050;50.634;3.062;2022-10-20T02:29:39;47.83;44.53;50.92;;
75467;Laerm;64050;50.634;3.062;2022-10-20T02:32:06;48.15;45.30;51.43;;
75467;Laerm;64050;50.634;3.062;2022-10-20T02:34:31;48.26;45.28;56.63;;
75467;Laerm;64050;50.634;3.062;2022-10-20T02:36:57;47.97;45.08;51.55;;
75467;Laerm;64050;50.634;3.062;2022-10-20T02:39:23;48.24;44.91;62.70;;
75467;Laerm;64050;50.634;3.062;2022-10-20T02:41:48;48.00;45.26;51.73;;
75467;Laerm;64050;50.634;3.062;2022-10-20T02:44:13;48.21;45.53;53.64;;
75467;Laerm;64050;50.634;3.062;2022-10-20T02:46:38;48.14;44.82;53.37;;
75467;Laerm;64050;50.634;3.062;2022-10-20T02:49:03;48.30;45.44;51.46;;
75467;Laerm;64050;50.634;3.062;2022-10-20T02:51:29;48.52;45.60;53.49;;
75467;Laerm;64050;50.634;3.062;2022-10-20T02:53:54;48.45;45.53;55.93;;
75467;Laerm;64050;50.634;3.062;2022-10-20T02:56:20;48.20;45.03;52.40;;
75467;Laerm;64050;50.634;3.062;2022-10-20T02:58:46;48.21;44.92;52.78;;
75467;Laerm;64050;50.634;3.062;2022-10-20T03:01:11;48.47;45.66;52.25;;
75467;Laerm;64050;50.634;3.062;2022-10-20T03:03:36;48.48;45.69;52.58;;
75467;Laerm;64050;50.634;3.062;2022-10-20T03:06:09;48.45;45.38;56.66;;
75467;Laerm;64050;50.634;3.062;2022-10-20T03:08:35;48.25;45.23;53.68;;
75467;Laerm;64050;50.634;3.062;2022-10-20T03:11:00;48.64;45.80;58.20;;
75467;Laerm;64050;50.634;3.062;2022-10-20T03:13:25;48.79;45.72;52.06;;
75467;Laerm;64050;50.634;3.062;2022-10-20T03:15:50;48.73;45.60;51.87;;
75467;Laerm;64050;50.634;3.062;2022-10-20T03:18:15;49.05;45.88;53.93;;
75467;Laerm;64050;50.634;3.062;2022-10-20T03:20:42;49.35;46.47;53.06;;
75467;Laerm;64050;50.634;3.062;2022-10-20T03:23:07;48.91;46.09;51.82;;
75467;Laerm;64050;50.634;3.062;2022-10-20T03:25:32;48.72;45.70;52.75;;
75467;Laerm;64050;50.634;3.062;2022-10-20T03:27:58;48.93;45.97;52.58;;
75467;Laerm;64050;50.634;3.062;2022-10-20T03:30:23;49.06;46.12;53.73;;
75467;Laerm;64050;50.634;3.062;2022-10-20T03:32:48;49.06;45.85;52.93;;
75467;Laerm;64050;50.634;3.062;2022-10-20T03:35:14;49.18;46.06;52.17;;
75467;Laerm;64050;50.634;3.062;2022-10-20T03:37:39;50.02;46.79;53.68;;
75467;Laerm;64050;50.634;3.062;2022-10-20T03:40:04;49.73;46.47;56.45;;
75467;Laerm;64050;50.634;3.062;2022-10-20T03:42:30;49.16;46.38;52.50;;
75467;Laerm;64050;50.634;3.062;2022-10-20T03:44:55;49.67;46.78;55.19;;
75467;Laerm;64050;50.634;3.062;2022-10-20T03:47:20;49.73;46.66;52.86;;
75467;Laerm;64050;50.634;3.062;2022-10-20T03:49:45;49.91;46.62;62.16;;
75467;Laerm;64050;50.634;3.062;2022-10-20T03:52:11;50.69;46.50;68.62;;
75467;Laerm;64050;50.634;3.062;2022-10-20T03:54:36;50.20;46.71;65.84;;
75467;Laerm;64050;50.634;3.062;2022-10-20T03:57:01;49.62;46.21;53.70;;
75467;Laerm;64050;50.634;3.062;2022-10-20T03:59:26;49.08;45.87;52.96;;
75467;Laerm;64050;50.634;3.062;2022-10-20T04:01:52;49.50;46.37;53.03;;
75467;Laerm;64050;50.634;3.062;2022-10-20T04:04:17;49.70;46.04;53.78;;
75467;Laerm;64050;50.634;3.062;2022-10-20T04:06:42;49.68;45.90;53.75;;
75467;Laerm;64050;50.634;3.062;2022-10-20T04:09:08;49.53;45.77;52.22;;
75467;Laerm;64050;50.634;3.062;2022-10-20T04:11:33;49.24;46.24;53.17;;
75467;Laerm;64050;50.634;3.062;2022-10-20T04:13:58;49.63;46.68;54.39;;
75467;Laerm;64050;50.634;3.062;2022-10-20T04:16:24;49.80;46.47;52.99;;
75467;Laerm;64050;50.634;3.062;2022-10-20T04:18:52;49.75;46.50;54.45;;
75467;Laerm;64050;50.634;3.062;2022-10-20T04:21:17;49.71;46.22;53.82;;
75467;Laerm;64050;50.634;3.062;2022-10-20T04:23:43;50.26;46.13;62.51;;
75467;Laerm;64050;50.634;3.062;2022-10-20T04:26:12;50.02;46.70;55.76;;
75467;Laerm;64050;50.634;3.062;2022-10-20T04:28:37;50.02;46.99;54.96;;
75467;Laerm;64050;50.634;3.062;2022-10-20T04:31:02;49.51;46.61;54.44;;
75467;Laerm;64050;50.634;3.062;2022-10-20T04:33:28;50.01;47.18;53.67;;
75467;Laerm;64050;50.634;3.062;2022-10-20T04:35:57;49.91;46.60;54.63;;
75467;Laerm;64050;50.634;3.062;2022-10-20T04:38:22;48.99;46.06;51.80;;
75467;Laerm;64050;50.634;3.062;2022-10-20T04:40:56;49.40;46.01;55.93;;
75467;Laerm;64050;50.634;3.062;2022-10-20T04:43:22;49.31;46.62;52.83;;
75467;Laerm;64050;50.634;3.062;2022-10-20T04:45:47;49.28;45.75;59.06;;
75467;Laerm;64050;50.634;3.062;2022-10-20T04:48:13;49.64;45.80;61.24;;
75467;Laerm;64050;50.634;3.062;2022-10-20T04:50:38;49.56;46.10;60.82;;
75467;Laerm;64050;50.634;3.062;2022-10-20T04:53:03;50.15;46.42;57.31;;
75467;Laerm;64050;50.634;3.062;2022-10-20T04:55:29;49.33;46.57;52.76;;
75467;Laerm;64050;50.634;3.062;2022-10-20T04:57:54;49.47;46.18;54.51;;
75467;Laerm;64050;50.634;3.062;2022-10-20T05:00:19;50.73;46.25;77.17;;
75467;Laerm;64050;50.634;3.062;2022-10-20T05:02:44;50.88;46.96;60.01;;
75467;Laerm;64050;50.634;3.062;2022-10-20T05:05:09;49.55;46.60;59.93;;
75467;Laerm;64050;50.634;3.062;2022-10-20T05:07:35;49.86;46.68;53.42;;
75467;Laerm;64050;50.634;3.062;2022-10-20T05:10:00;49.84;46.59;58.07;;
75467;Laerm;64050;50.634;3.062;2022-10-20T05:12:25;50.10;46.64;55.01;;
75467;Laerm;64050;50.634;3.062;2022-10-20T05:14:51;50.05;47.24;53.57;;
75467;Laerm;64050;50.634;3.062;2022-10-20T05:17:17;49.73;46.11;54.97;;
75467;Laerm;64050;50.634;3.062;2022-10-20T05:19:42;49.98;46.71;56.76;;
75467;Laerm;64050;50.634;3.062;2022-10-20T05:22:07;49.67;46.76;55.55;;
75467;Laerm;64050;50.634;3.062;2022-10-20T05:24:32;50.24;47.16;54.76;;
75467;Laerm;64050;50.634;3.062;2022-10-20T05:26:57;50.04;46.52;54.98;;
75467;Laerm;64050;50.634;3.062;2022-10-20T05:29:23;50.17;46.34;55.02;;
75467;Laerm;64050;50.634;3.062;2022-10-20T05:31:48;49.33;46.10;57.18;;
75467;Laerm;64050;50.634;3.062;2022-10-20T05:34:13;49.72;46.51;61.46;;
75467;Laerm;64050;50.634;3.062;2022-10-20T05:36:38;50.93;46.68;69.28;;
75467;Laerm;64050;50.634;3.062;2022-10-20T05:39:04;49.57;46.40;52.45;;
75467;Laerm;64050;50.634;3.062;2022-10-20T05:41:30;51.47;46.93;60.82;;
75467;Laerm;64050;50.634;3.062;2022-10-20T05:43:56;50.12;47.15;58.07;;
75467;Laerm;64050;50.634;3.062;2022-10-20T05:46:22;50.68;46.74;58.55;;
75467;Laerm;64050;50.634;3.062;2022-10-20T05:48:50;50.75;47.59;53.69;;
75467;Laerm;64050;50.634;3.062;2022-10-20T05:51:17;55.87;47.56;73.84;;
75467;Laerm;64050;50.634;3.062;2022-10-20T05:53:43;50.89;47.78;56.00;;
75467;Laerm;64050;50.634;3.062;2022-10-20T05:56:10;50.90;47.38;54.25;;
75467;Laerm;64050;50.634;3.062;2022-10-20T05:58:35;51.07;47.40;70.01;;
75467;Laerm;64050;50.634;3.062;2022-10-20T06:01:05;51.25;47.29;67.48;;
75467;Laerm;64050;50.634;3.062;2022-10-20T06:03:30;53.63;47.10;73.43;;
75467;Laerm;64050;50.634;3.062;2022-10-20T06:05:56;55.53;47.56;74.98;;
75467;Laerm;64050;50.634;3.062;2022-10-20T06:08:21;50.57;47.10;63.08;;
75467;Laerm;64050;50.634;3.062;2022-10-20T06:10:47;50.34;46.32;66.80;;
75467;Laerm;64050;50.634;3.062;2022-10-20T06:13:12;54.69;47.18;76.60;;
75467;Laerm;64050;50.634;3.062;2022-10-20T06:15:37;51.13;47.12;68.88;;
75467;Laerm;64050;50.634;3.062;2022-10-20T06:18:02;50.91;47.68;64.22;;
75467;Laerm;64050;50.634;3.062;2022-10-20T06:20:28;50.78;47.44;63.52;;
75467;Laerm;64050;50.634;3.062;2022-10-20T06:22:53;54.77;48.12;73.57;;
75467;Laerm;64050;50.634;3.062;2022-10-20T06:25:18;59.36;47.29;74.74;;
75467;Laerm;64050;50.634;3.062;2022-10-20T06:27:43;53.71;48.44;74.71;;
75467;Laerm;64050;50.634;3.062;2022-10-20T06:30:09;53.49;48.87;74.73;;
75467;Laerm;64050;50.634;3.062;2022-10-20T06:32:34;60.37;51.33;77.37;;
75467;Laerm;64050;50.634;3.062;2022-10-20T06:34:59;63.64;59.93;67.22;;
75467;Laerm;64050;50.634;3.062;2022-10-20T06:37:24;61.78;58.33;64.59;;
75467;Laerm;64050;50.634;3.062;2022-10-20T06:39:50;60.55;55.81;64.48;;
75467;Laerm;64050;50.634;3.062;2022-10-20T06:42:15;58.89;53.71;62.67;;
75467;Laerm;64050;50.634;3.062;2022-10-20T06:44:40;56.53;52.55;65.41;;
75467;Laerm;64050;50.634;3.062;2022-10-20T06:47:05;58.18;54.43;64.25;;
75467;Laerm;64050;50.634;3.062;2022-10-20T06:49:34;58.80;55.38;62.20;;
75467;Laerm;64050;50.634;3.062;2022-10-20T06:51:59;60.07;57.54;62.64;;
75467;Laerm;64050;50.634;3.062;2022-10-20T06:54:24;59.06;55.75;66.05;;
75467;Laerm;64050;50.634;3.062;2022-10-20T06:56:49;58.46;55.26;62.45;;
75467;Laerm;64050;50.634;3.062;2022-10-20T06:59:14;58.51;54.64;69.03;;
75467;Laerm;64050;50.634;3.062;2022-10-20T07:01:40;60.34;55.17;68.38;;
75467;Laerm;64050;50.634;3.062;2022-10-20T07:04:08;60.43;57.26;68.07;;
75467;Laerm;64050;50.634;3.062;2022-10-20T07:06:36;60.68;57.41;66.77;;
75467;Laerm;64050;50.634;3.062;2022-10-20T07:09:02;61.07;58.06;69.97;;
75467;Laerm;64050;50.634;3.062;2022-10-20T07:11:28;59.71;57.09;70.21;;
75467;Laerm;64050;50.634;3.062;2022-10-20T07:13:54;60.37;57.24;69.36;;
75467;Laerm;64050;50.634;3.062;2022-10-20T07:16:22;59.00;56.19;66.41;;
75467;Laerm;64050;50.634;3.062;2022-10-20T07:18:48;60.73;57.48;70.47;;
75467;Laerm;64050;50.634;3.062;2022-10-20T07:21:14;61.13;58.37;71.75;;
75467;Laerm;64050;50.634;3.062;2022-10-20T07:23:40;60.75;58.18;66.10;;
75467;Laerm;64050;50.634;3.062;2022-10-20T07:28:31;61.12;57.13;77.57;;
75467;Laerm;64050;50.634;3.062;2022-10-20T07:30:56;61.33;56.42;68.97;;
75467;Laerm;64050;50.634;3.062;2022-10-20T07:33:25;62.35;57.60;74.31;;
75467;Laerm;64050;50.634;3.062;2022-10-20T07:35:50;60.47;56.41;65.05;;
75467;Laerm;64050;50.634;3.062;2022-10-20T07:38:16;60.15;56.82;63.90;;
75467;Laerm;64050;50.634;3.062;2022-10-20T07:40:41;57.94;54.39;62.03;;
75467;Laerm;64050;50.634;3.062;2022-10-20T07:43:06;58.58;55.32;64.34;;
75467;Laerm;64050;50.634;3.062;2022-10-20T07:45:31;57.71;54.30;63.29;;
75467;Laerm;64050;50.634;3.062;2022-10-20T07:47:57;57.10;53.48;69.54;;
75467;Laerm;64050;50.634;3.062;2022-10-20T07:50:23;56.50;52.78;61.30;;
75467;Laerm;64050;50.634;3.062;2022-10-20T07:52:49;56.79;53.47;63.52;;
75467;Laerm;64050;50.634;3.062;2022-10-20T07:55:14;56.65;53.17;67.43;;
75467;Laerm;64050;50.634;3.062;2022-10-20T07:57:39;56.57;52.62;75.88;;
75467;Laerm;64050;50.634;3.062;2022-10-20T08:00:05;56.26;53.13;60.27;;
75467;Laerm;64050;50.634;3.062;2022-10-20T08:02:30;56.28;52.33;63.30;;
75467;Laerm;64050;50.634;3.062;2022-10-20T08:04:55;57.55;53.65;64.63;;
75467;Laerm;64050;50.634;3.062;2022-10-20T08:07:21;56.43;52.85;61.86;;
75467;Laerm;64050;50.634;3.062;2022-10-20T08:09:46;56.39;52.86;64.95;;
75467;Laerm;64050;50.634;3.062;2022-10-20T08:12:11;56.71;53.41;60.88;;
75467;Laerm;64050;50.634;3.062;2022-10-20T08:14:36;56.04;52.13;61.81;;
75467;Laerm;64050;50.634;3.062;2022-10-20T08:17:02;56.10;52.94;63.66;;
75467;Laerm;64050;50.634;3.062;2022-10-20T08:19:27;56.30;52.97;61.92;;
75467;Laerm;64050;50.634;3.062;2022-10-20T08:21:52;56.49;52.98;63.92;;
75467;Laerm;64050;50.634;3.062;2022-10-20T08:24:18;58.53;53.82;72.87;;
75467;Laerm;64050;50.634;3.062;2022-10-20T08:26:43;61.30;57.44;69.18;;
75467;Laerm;64050;50.634;3.062;2022-10-20T08:29:08;60.84;57.52;64.93;;
75467;Laerm;64050;50.634;3.062;2022-10-20T08:31:34;60.15;53.35;76.82;;
75467;Laerm;64050;50.634;3.062;2022-10-20T08:33:59;58.73;55.59;69.99;;
75467;Laerm;64050;50.634;3.062;2022-10-20T08:36:24;58.33;53.48;83.31;;
75467;Laerm;64050;50.634;3.062;2022-10-20T08:38:49;57.29;53.47;72.75;;
75467;Laerm;64050;50.634;3.062;2022-10-20T08:41:19;56.66;53.29;65.76;;
75467;Laerm;64050;50.634;3.062;2022-10-20T08:43:44;57.19;52.88;77.53;;
75467;Laerm;64050;50.634;3.062;2022-10-20T08:46:12;61.86;55.18;82.95;;
75467;Laerm;64050;50.634;3.062;2022-10-20T08:48:38;60.22;54.73;76.35;;
75467;Laerm;64050;50.634;3.062;2022-10-20T08:51:03;57.40;53.60;74.49;;
75467;Laerm;64050;50.634;3.062;2022-10-20T08:53:29;56.88;53.31;66.09;;
75467;Laerm;64050;50.634;3.062;2022-10-20T08:55:57;56.95;53.18;66.64;;
75467;Laerm;64050;50.634;3.062;2022-10-20T08:58:23;57.30;53.44;78.04;;
75467;Laerm;64050;50.634;3.062;2022-10-20T09:00:54;56.72;52.82;74.50;;
75467;Laerm;64050;50.634;3.062;2022-10-20T09:05:47;56.54;53.14;60.22;;
75467;Laerm;64050;50.634;3.062;2022-10-20T09:08:14;56.70;52.91;64.97;;
75467;Laerm;64050;50.634;3.062;2022-10-20T09:10:46;57.06;53.51;66.46;;
75467;Laerm;64050;50.634;3.062;2022-10-20T09:13:23;56.82;53.10;66.27;;
75467;Laerm;64050;50.634;3.062;2022-10-20T09:15:49;57.20;53.16;65.16;;
75467;Laerm;64050;50.634;3.062;2022-10-20T09:18:16;56.54;52.97;63.22;;
75467;Laerm;64050;50.634;3.062;2022-10-20T09:23:17;57.52;53.49;72.55;;
75467;Laerm;64050;50.634;3.062;2022-10-20T09:25:44;57.39;53.21;64.11;;
75467;Laerm;64050;50.634;3.062;2022-10-20T09:28:26;57.11;53.27;66.93;;
75467;Laerm;64050;50.634;3.062;2022-10-20T09:30:55;57.82;53.06;78.28;;
75467;Laerm;64050;50.634;3.062;2022-10-20T09:35:46;56.72;53.23;64.84;;
75467;Laerm;64050;50.634;3.062;2022-10-20T09:38:18;56.98;53.29;69.61;;
75467;Laerm;64050;50.634;3.062;2022-10-20T09:41:20;57.24;53.57;67.63;;
75467;Laerm;64050;50.634;3.062;2022-10-20T09:44:00;56.85;53.32;66.23;;
75467;Laerm;64050;50.634;3.062;2022-10-20T09:46:27;57.32;53.09;69.67;;
75467;Laerm;64050;50.634;3.062;2022-10-20T09:48:53;56.74;52.78;63.36;;
75467;Laerm;64050;50.634;3.062;2022-10-20T09:51:20;56.99;53.27;65.72;;
75467;Laerm;64050;50.634;3.062;2022-10-20T09:53:50;57.06;53.54;71.88;;
75467;Laerm;64050;50.634;3.062;2022-10-20T10:01:54;58.69;55.22;70.97;;
75467;Laerm;64050;50.634;3.062;2022-10-20T10:04:30;58.12;54.15;72.03;;
75467;Laerm;64050;50.634;3.062;2022-10-20T10:06:56;57.10;53.02;69.48;;
75467;Laerm;64050;50.634;3.062;2022-10-20T10:09:28;57.45;53.01;68.32;;
75467;Laerm;64050;50.634;3.062;2022-10-20T10:14:23;56.83;52.98;67.51;;
75467;Laerm;64050;50.634;3.062;2022-10-20T10:16:48;56.69;53.05;62.28;;
75467;Laerm;64050;50.634;3.062;2022-10-20T10:19:15;57.24;52.86;64.04;;
75467;Laerm;64050;50.634;3.062;2022-10-20T10:21:44;57.80;52.87;63.84;;
75467;Laerm;64050;50.634;3.062;2022-10-20T10:24:44;56.90;51.93;61.78;;
75467;Laerm;64050;50.634;3.062;2022-10-20T10:27:03;57.99;53.84;68.32;;
75467;Laerm;64050;50.634;3.062;2022-10-20T10:29:31;57.26;53.28;64.66;;
75467;Laerm;64050;50.634;3.062;2022-10-20T10:31:58;57.89;53.29;68.64;;
75467;Laerm;64050;50.634;3.062;2022-10-20T10:34:38;58.30;54.26;67.92;;
75467;Laerm;64050;50.634;3.062;2022-10-20T10:37:08;58.05;53.46;71.64;;
75467;Laerm;64050;50.634;3.062;2022-10-20T10:39:35;57.68;53.43;63.54;;
75467;Laerm;64050;50.634;3.062;2022-10-20T10:54:42;58.46;54.19;64.45;;
75467;Laerm;64050;50.634;3.062;2022-10-20T10:58:01;58.38;53.68;65.19;;
75467;Laerm;64050;50.634;3.062;2022-10-20T10:59:58;58.34;53.42;64.83;;
75467;Laerm;64050;50.634;3.062;2022-10-20T11:02:34;58.58;53.09;67.52;;
75467;Laerm;64050;50.634;3.062;2022-10-20T11:10:24;58.27;53.91;64.57;;
75467;Laerm;64050;50.634;3.062;2022-10-20T11:12:58;58.65;54.04;67.48;;
75467;Laerm;64050;50.634;3.062;2022-10-20T11:20:41;58.70;53.48;72.51;;
75467;Laerm;64050;50.634;3.062;2022-10-20T11:23:20;58.95;54.33;69.62;;
75467;Laerm;64050;50.634;3.062;2022-10-20T11:25:53;58.90;53.68;66.85;;
75467;Laerm;64050;50.634;3.062;2022-10-20T11:28:24;58.69;53.62;67.04;;
75467;Laerm;64050;50.634;3.062;2022-10-20T11:30:51;58.15;53.88;69.63;;
75467;Laerm;64050;50.634;3.062;2022-10-20T11:33:17;57.60;52.70;73.31;;
75467;Laerm;64050;50.634;3.062;2022-10-20T11:35:50;57.80;53.45;65.04;;
75467;Laerm;64050;50.634;3.062;2022-10-20T11:38:19;58.09;54.23;66.47;;
75467;Laerm;64050;50.634;3.062;2022-10-20T11:41:10;57.68;53.78;65.86;;
75467;Laerm;64050;50.634;3.062;2022-10-20T11:43:36;57.99;53.71;66.02;;
75467;Laerm;64050;50.634;3.062;2022-10-20T11:46:11;57.95;53.35;69.44;;
75467;Laerm;64050;50.634;3.062;2022-10-20T11:56:22;58.87;53.73;74.15;;
75467;Laerm;64050;50.634;3.062;2022-10-20T12:01:30;58.23;54.23;70.20;;
75467;Laerm;64050;50.634;3.062;2022-10-20T12:19:04;58.53;53.95;69.32;;
75467;Laerm;64050;50.634;3.062;2022-10-20T12:27:01;57.60;52.51;68.88;;
75467;Laerm;64050;50.634;3.062;2022-10-20T12:34:39;56.80;48.67;73.30;;
75467;Laerm;64050;50.634;3.062;2022-10-20T12:37:06;57.37;47.97;80.55;;
75467;Laerm;64050;50.634;3.062;2022-10-20T12:39:31;55.60;48.45;73.45;;
75467;Laerm;64050;50.634;3.062;2022-10-20T12:41:58;55.76;48.75;77.23;;
75467;Laerm;64050;50.634;3.062;2022-10-20T12:44:23;55.34;48.54;72.08;;
75467;Laerm;64050;50.634;3.062;2022-10-20T12:46:56;58.63;47.79;83.95;;
75467;Laerm;64050;50.634;3.062;2022-10-20T12:49:27;56.61;47.93;75.18;;
75467;Laerm;64050;50.634;3.062;2022-10-20T12:51:54;54.60;47.34;68.15;;
75467;Laerm;64050;50.634;3.062;2022-10-20T12:57:00;55.63;47.59;76.63;;
75467;Laerm;64050;50.634;3.062;2022-10-20T13:10:28;57.85;46.58;79.68;;
75467;Laerm;64050;50.634;3.062;2022-10-20T13:15:44;56.30;46.08;72.91;;
75467;Laerm;64050;50.634;3.062;2022-10-20T13:18:20;59.51;47.80;83.29;;
75467;Laerm;64050;50.634;3.062;2022-10-20T13:23:41;58.60;47.74;73.59;;
75467;Laerm;64050;50.634;3.062;2022-10-20T13:26:23;56.58;49.46;71.99;;
75467;Laerm;64050;50.634;3.062;2022-10-20T13:28:52;58.73;48.08;76.27;;
75467;Laerm;64050;50.634;3.062;2022-10-20T13:31:35;59.82;49.08;76.82;;
75467;Laerm;64050;50.634;3.062;2022-10-20T13:52:21;55.79;47.13;72.51;;
75467;Laerm;64050;50.634;3.062;2022-10-20T13:54:49;55.61;48.75;72.34;;
75467;Laerm;64050;50.634;3.062;2022-10-20T13:57:18;55.48;48.81;71.27;;
75467;Laerm;64050;50.634;3.062;2022-10-20T13:59:55;55.70;47.79;68.50;;
75467;Laerm;64050;50.634;3.062;2022-10-20T14:02:25;57.04;48.39;78.42;;
75467;Laerm;64050;50.634;3.062;2022-10-20T14:05:00;56.05;48.81;73.51;;
75467;Laerm;64050;50.634;3.062;2022-10-20T14:07:25;56.98;49.02;69.15;;
75467;Laerm;64050;50.634;3.062;2022-10-20T14:09:59;58.55;47.91;73.74;;
75467;Laerm;64050;50.634;3.062;2022-10-20T14:12:24;57.06;48.91;71.50;;
75467;Laerm;64050;50.634;3.062;2022-10-20T14:14:50;55.95;48.62;66.53;;
75467;Laerm;64050;50.634;3.062;2022-10-20T14:17:17;55.41;48.26;64.98;;
75467;Laerm;64050;50.634;3.062;2022-10-20T14:19:43;55.46;48.50;66.64;;
75467;Laerm;64050;50.634;3.062;2022-10-20T14:24:43;57.20;47.64;77.29;;
75467;Laerm;64050;50.634;3.062;2022-10-20T14:27:13;57.56;48.45;71.73;;
75467;Laerm;64050;50.634;3.062;2022-10-20T14:29:41;54.76;48.68;68.42;;
75467;Laerm;64050;50.634;3.062;2022-10-20T14:32:06;57.00;48.73;71.15;;
75467;Laerm;64050;50.634;3.062;2022-10-20T14:34:34;56.26;48.89;64.76;;
75467;Laerm;64050;50.634;3.062;2022-10-20T14:37:00;57.32;49.66;70.03;;
75467;Laerm;64050;50.634;3.062;2022-10-20T14:41:58;58.65;50.41;71.92;;
75467;Laerm;64050;50.634;3.062;2022-10-20T14:44:24;58.53;49.70;71.25;;
75467;Laerm;64050;50.634;3.062;2022-10-20T14:46:50;58.99;50.72;71.42;;
75467;Laerm;64050;50.634;3.062;2022-10-20T14:51:52;59.13;49.65;73.58;;
75467;Laerm;64050;50.634;3.062;2022-10-20T14:56:50;59.59;48.58;69.26;;
75467;Laerm;64050;50.634;3.062;2022-10-20T14:59:20;59.89;50.43;71.24;;
75467;Laerm;64050;50.634;3.062;2022-10-20T15:04:34;60.38;48.94;72.67;;
75467;Laerm;64050;50.634;3.062;2022-10-20T15:07:03;59.28;49.54;71.40;;
75467;Laerm;64050;50.634;3.062;2022-10-20T15:09:31;61.13;51.06;72.15;;
75467;Laerm;64050;50.634;3.062;2022-10-20T15:11:57;60.10;51.48;72.18;;
75467;Laerm;64050;50.634;3.062;2022-10-20T15:14:22;58.54;50.88;71.42;;
75467;Laerm;64050;50.634;3.062;2022-10-20T15:16:48;59.44;51.37;70.66;;
75467;Laerm;64050;50.634;3.062;2022-10-20T15:21:48;56.60;49.44;68.28;;
75467;Laerm;64050;50.634;3.062;2022-10-20T15:24:13;55.78;48.73;67.04;;
75467;Laerm;64050;50.634;3.062;2022-10-20T15:26:39;56.76;49.49;70.93;;
75467;Laerm;64050;50.634;3.062;2022-10-20T15:29:04;58.26;50.12;70.20;;
75467;Laerm;64050;50.634;3.062;2022-10-20T15:31:30;59.52;50.15;71.81;;
75467;Laerm;64050;50.634;3.062;2022-10-20T15:33:56;61.22;52.54;76.67;;
75467;Laerm;64050;50.634;3.062;2022-10-20T15:36:22;61.19;51.44;72.68;;
75467;Laerm;64050;50.634;3.062;2022-10-20T15:38:52;60.88;51.59;74.00;;
75467;Laerm;64050;50.634;3.062;2022-10-20T15:41:18;60.54;50.34;79.39;;
75467;Laerm;64050;50.634;3.062;2022-10-20T15:43:44;61.10;50.38;73.09;;
75467;Laerm;64050;50.634;3.062;2022-10-20T15:46:10;62.95;49.96;79.09;;
75467;Laerm;64050;50.634;3.062;2022-10-20T15:48:35;63.23;54.64;76.21;;
75467;Laerm;64050;50.634;3.062;2022-10-20T15:51:01;63.20;52.13;76.83;;
75467;Laerm;64050;50.634;3.062;2022-10-20T15:53:26;63.19;53.00;76.58;;
75467;Laerm;64050;50.634;3.062;2022-10-20T15:55:51;65.23;54.01;79.25;;
75467;Laerm;64050;50.634;3.062;2022-10-20T15:58:16;62.77;55.06;75.83;;
75467;Laerm;64050;50.634;3.062;2022-10-20T16:00:42;63.39;56.32;77.17;;
75467;Laerm;64050;50.634;3.062;2022-10-20T16:03:08;63.79;56.45;76.17;;
75467;Laerm;64050;50.634;3.062;2022-10-20T16:05:36;63.49;56.28;78.85;;
75467;Laerm;64050;50.634;3.062;2022-10-20T16:08:01;64.19;56.97;79.38;;
75467;Laerm;64050;50.634;3.062;2022-10-20T16:10:26;64.26;57.39;72.49;;
75467;Laerm;64050;50.634;3.062;2022-10-20T16:12:53;63.87;56.80;75.36;;
75467;Laerm;64050;50.634;3.062;2022-10-20T16:15:18;65.35;57.77;76.35;;
75467;Laerm;64050;50.634;3.062;2022-10-20T16:17:44;66.53;58.22;80.74;;
75467;Laerm;64050;50.634;3.062;2022-10-20T16:20:10;65.56;58.05;77.73;;
75467;Laerm;64050;50.634;3.062;2022-10-20T16:22:35;65.01;56.92;80.69;;
75467;Laerm;64050;50.634;3.062;2022-10-20T16:25:00;65.66;58.41;78.30;;